createdAt,value
2018-06-01T00:01:08.742Z,6.20
2018-06-01T00:03:36.301Z,6.07
2018-06-01T00:06:03.857Z,6.53
2018-06-01T00:08:31.479Z,6.80
2018-06-01T00:10:59.039Z,6.53
2018-06-01T00:13:26.604Z,7.23
2018-06-01T00:15:54.191Z,6.10
2018-06-01T00:18:21.751Z,6.40
2018-06-01T00:20:50.082Z,6.60
2018-06-01T00:23:17.665Z,6.43
2018-06-01T00:25:45.227Z,5.57
2018-06-01T00:28:12.786Z,8.00
2018-06-01T00:30:40.432Z,7.97
2018-06-01T00:33:07.956Z,8.00
2018-06-01T00:35:35.518Z,6.67
2018-06-01T00:38:03.111Z,5.77
2018-06-01T00:40:30.673Z,5.57
2018-06-01T00:42:58.273Z,6.23
2018-06-01T00:45:26.991Z,6.83
2018-06-01T00:47:54.576Z,6.57
2018-06-01T00:50:22.145Z,7.37
2018-06-01T00:52:50.214Z,6.17
2018-06-01T00:55:27.091Z,6.47
2018-06-01T00:57:54.655Z,6.67
2018-06-01T01:00:22.252Z,7.03
2018-06-01T01:02:49.811Z,9.70
2018-06-01T01:05:17.366Z,8.60
2018-06-01T01:07:44.977Z,8.10
2018-06-01T01:10:12.534Z,9.90
2018-06-01T01:12:40.093Z,8.23
2018-06-01T01:15:07.703Z,8.57
2018-06-01T01:17:35.266Z,8.37
2018-06-01T01:20:02.832Z,10.68
2018-06-01T01:22:30.503Z,10.50
2018-06-01T01:24:58.752Z,11.98
2018-06-01T01:27:26.313Z,9.17
2018-06-01T01:29:53.897Z,9.37
2018-06-01T01:32:21.458Z,8.87
2018-06-01T01:34:49.027Z,9.27
2018-06-01T01:37:31.585Z,8.67
2018-06-01T01:39:59.138Z,7.40
2018-06-01T01:42:26.697Z,7.23
2018-06-01T01:44:54.295Z,7.20
2018-06-01T01:47:21.848Z,7.03
2018-06-01T01:49:49.409Z,7.30
2018-06-01T01:52:17.005Z,7.50
2018-06-01T01:54:44.563Z,8.00
2018-06-01T01:57:12.125Z,7.47
2018-06-01T01:59:39.724Z,7.30
2018-06-01T02:02:07.275Z,6.83
2018-06-01T02:04:34.841Z,7.83
2018-06-01T02:07:02.433Z,6.67
2018-06-01T02:09:31.332Z,7.20
2018-06-01T02:11:58.893Z,6.60
2018-06-01T02:14:26.487Z,6.93
2018-06-01T02:16:54.050Z,6.60
2018-06-01T02:19:22.377Z,6.03
2018-06-01T02:21:49.973Z,6.30
2018-06-01T02:24:17.541Z,7.47
2018-06-01T02:26:45.102Z,6.27
2018-06-01T02:29:12.688Z,7.57
2018-06-01T02:31:41.016Z,5.70
2018-06-01T02:34:08.586Z,7.45
2018-06-01T02:36:36.170Z,6.17
2018-06-01T02:39:03.729Z,6.33
2018-06-01T02:41:31.290Z,6.20
2018-06-01T02:43:58.898Z,5.87
2018-06-01T02:46:26.453Z,6.03
2018-06-01T02:48:54.008Z,5.87
2018-06-01T02:51:21.692Z,5.87
2018-06-01T02:53:49.256Z,5.90
2018-06-01T02:56:16.803Z,5.73
2018-06-01T02:58:44.392Z,6.30
2018-06-01T03:01:11.956Z,5.90
2018-06-01T03:03:39.511Z,5.80
2018-06-01T03:06:07.110Z,5.67
2018-06-01T03:08:34.661Z,5.90
2018-06-01T03:11:02.222Z,5.70
2018-06-01T03:13:29.819Z,5.57
2018-06-01T03:15:57.373Z,6.07
2018-06-01T03:18:25.694Z,5.67
2018-06-01T03:20:53.286Z,5.73
2018-06-01T03:23:21.995Z,5.53
2018-06-01T03:25:49.568Z,5.50
2018-06-01T03:28:17.204Z,5.93
2018-06-01T03:30:44.728Z,6.95
2018-06-01T03:33:12.288Z,6.47
2018-06-01T03:35:39.870Z,5.97
2018-06-01T03:38:07.431Z,6.13
2018-06-01T03:40:34.994Z,5.70
2018-06-01T03:43:02.590Z,6.53
2018-06-01T03:45:30.914Z,6.40
2018-06-01T03:47:58.464Z,6.33
2018-06-01T03:50:26.498Z,5.50
2018-06-01T03:52:54.829Z,6.20
2018-06-01T03:55:22.384Z,5.70
2018-06-01T03:57:49.980Z,5.93
2018-06-01T04:00:17.549Z,6.10
2018-06-01T04:02:45.893Z,5.70
2018-06-01T04:05:13.483Z,5.87
2018-06-01T04:07:41.041Z,6.30
2018-06-01T04:10:08.593Z,5.97
2018-06-01T04:12:37.048Z,5.43
2018-06-01T04:15:04.609Z,6.82
2018-06-01T04:17:32.175Z,5.67
2018-06-01T04:19:59.762Z,5.50
2018-06-01T04:22:27.318Z,5.73
2018-06-01T04:24:54.873Z,5.50
2018-06-01T04:27:22.472Z,5.40
2018-06-01T04:29:50.793Z,5.40
2018-06-01T04:32:18.350Z,5.40
2018-06-01T04:34:45.956Z,5.23
2018-06-01T04:37:13.513Z,4.47
2018-06-01T04:39:41.069Z,5.27
2018-06-01T04:42:08.651Z,5.70
2018-06-01T04:44:37.001Z,6.80
2018-06-01T04:47:04.520Z,5.53
2018-06-01T04:49:32.522Z,5.17
2018-06-01T04:52:00.082Z,5.30
2018-06-01T04:54:27.642Z,5.00
2018-06-01T04:56:55.265Z,5.50
2018-06-01T04:59:22.815Z,5.23
2018-06-01T05:01:50.370Z,5.50
2018-06-01T05:04:18.725Z,5.30
2018-06-01T05:06:46.282Z,6.07
2018-06-01T05:09:13.836Z,6.68
2018-06-01T05:11:41.447Z,5.80
2018-06-01T05:14:09.005Z,6.35
2018-06-01T05:16:36.586Z,5.70
2018-06-01T05:19:04.944Z,5.83
2018-06-01T05:21:32.511Z,5.23
2018-06-01T05:24:00.073Z,5.17
2018-06-01T05:26:27.672Z,5.20
2018-06-01T05:28:55.227Z,4.80
2018-06-01T05:31:24.458Z,5.10
2018-06-01T05:33:50.381Z,5.20
2018-06-01T05:36:17.939Z,4.80
2018-06-01T05:38:45.494Z,6.40
2018-06-01T05:41:13.551Z,6.80
2018-06-01T05:43:41.107Z,5.47
2018-06-01T05:46:08.672Z,5.60
2018-06-01T05:48:36.272Z,5.30
2018-06-01T05:51:03.821Z,5.13
2018-06-01T05:53:31.381Z,5.20
2018-06-01T05:55:58.979Z,5.50
2018-06-01T05:58:26.530Z,5.70
2018-06-01T06:00:54.856Z,4.40
2018-06-01T06:03:22.449Z,4.03
2018-06-01T06:05:50.004Z,4.07
2018-06-01T06:08:17.563Z,5.45
2018-06-01T06:10:45.153Z,4.20
2018-06-01T06:13:13.484Z,5.60
2018-06-01T06:15:41.040Z,4.77
2018-06-01T06:18:08.640Z,4.27
2018-06-01T06:20:36.965Z,3.97
2018-06-01T06:23:04.518Z,3.80
2018-06-01T06:25:32.116Z,3.70
2018-06-01T06:27:59.673Z,3.70
2018-06-01T06:30:27.230Z,4.22
2018-06-01T06:32:54.828Z,3.30
2018-06-01T06:35:23.154Z,3.50
2018-06-01T06:37:52.264Z,3.90
2018-06-01T06:40:20.378Z,4.20
2018-06-01T06:42:48.697Z,3.97
2018-06-01T06:45:16.246Z,4.07
2018-06-01T06:47:44.350Z,4.43
2018-06-01T06:50:11.908Z,3.87
2018-06-01T06:52:39.465Z,3.47
2018-06-01T06:55:07.073Z,3.43
2018-06-01T06:57:34.620Z,4.17
2018-06-01T07:00:02.175Z,3.60
2018-06-01T07:02:29.790Z,4.93
2018-06-01T07:04:57.359Z,5.55
2018-06-01T07:07:24.912Z,3.80
2018-06-01T07:09:53.032Z,4.43
2018-06-01T07:12:20.592Z,3.83
2018-06-01T07:14:48.145Z,3.27
2018-06-01T07:17:15.747Z,3.33
2018-06-01T07:19:44.064Z,3.83
2018-06-01T07:22:11.618Z,3.87
2018-06-01T07:24:40.048Z,4.10
2018-06-01T07:27:07.604Z,3.87
2018-06-01T07:29:35.166Z,3.97
2018-06-01T07:32:02.809Z,3.73
2018-06-01T07:34:30.369Z,4.30
2018-06-01T07:36:57.926Z,4.10
2018-06-01T07:39:25.535Z,4.33
2018-06-01T07:41:53.087Z,4.43
2018-06-01T07:44:20.643Z,3.70
2018-06-01T07:46:48.280Z,4.13
2018-06-01T07:49:15.801Z,3.57
2018-06-01T07:51:43.360Z,4.47
2018-06-01T07:54:11.256Z,3.50
2018-06-01T07:56:38.828Z,3.93
2018-06-01T07:59:06.374Z,4.40
2018-06-01T08:01:34.007Z,3.70
2018-06-01T08:04:01.571Z,3.97
2018-06-01T08:06:29.472Z,3.50
2018-06-01T08:08:57.424Z,3.80
2018-06-01T08:11:24.977Z,3.83
2018-06-01T08:13:52.531Z,3.73
2018-06-01T08:16:20.133Z,4.20
2018-06-01T08:18:47.693Z,3.90
2018-06-01T08:21:15.244Z,3.63
2018-06-01T08:23:42.903Z,3.50
2018-06-01T08:26:10.510Z,3.90
2018-06-01T08:28:38.082Z,4.00
2018-06-01T08:31:06.463Z,4.43
2018-06-01T08:33:34.798Z,3.77
2018-06-01T08:36:02.356Z,4.27
2018-06-01T08:38:29.968Z,3.90
2018-06-01T08:40:58.283Z,3.37
2018-06-01T08:43:25.839Z,3.30
2018-06-01T08:45:53.444Z,3.30
2018-06-01T08:48:20.999Z,3.37
2018-06-01T08:50:48.569Z,2.70
2018-06-01T08:53:16.203Z,3.03
2018-06-01T08:55:43.775Z,3.23
2018-06-01T08:58:11.329Z,2.50
2018-06-01T09:00:38.937Z,3.83
2018-06-01T09:03:07.324Z,2.60
2018-06-01T09:05:34.828Z,2.67
2018-06-01T09:08:03.000Z,2.30
2018-06-01T09:10:30.546Z,2.40
2018-06-01T09:12:58.105Z,2.73
2018-06-01T09:15:25.711Z,2.10
2018-06-01T09:17:53.271Z,2.30
2018-06-01T09:20:20.823Z,2.20
2018-06-01T09:22:48.427Z,2.23
2018-06-01T09:25:15.979Z,2.07
2018-06-01T09:27:44.303Z,2.20
2018-06-01T09:30:11.914Z,1.80
2018-06-01T09:32:40.248Z,1.80
2018-06-01T09:35:07.798Z,2.10
2018-06-01T09:37:35.408Z,1.70
2018-06-01T09:40:02.972Z,2.10
2018-06-01T09:42:31.292Z,2.03
2018-06-01T09:44:58.912Z,2.50
2018-06-01T09:47:27.231Z,2.03
2018-06-01T09:49:54.793Z,2.50
2018-06-01T09:52:22.395Z,2.43
2018-06-01T09:54:49.950Z,2.20
2018-06-01T09:57:17.516Z,2.57
2018-06-01T09:59:45.164Z,2.43
2018-06-01T10:02:12.724Z,2.57
2018-06-01T10:04:40.281Z,2.67
2018-06-01T10:07:07.892Z,3.27
2018-06-01T10:09:36.214Z,2.57
2018-06-01T10:12:03.759Z,3.00
2018-06-01T10:14:31.744Z,3.93
2018-06-01T10:16:59.300Z,2.40
2018-06-01T10:19:26.857Z,2.47
2018-06-01T10:21:54.854Z,2.30
2018-06-01T10:24:22.407Z,2.23
2018-06-01T10:26:49.957Z,2.60
2018-06-01T10:29:17.544Z,2.67
2018-06-01T10:31:45.098Z,2.57
2018-06-01T10:34:12.702Z,3.00
2018-06-01T10:36:40.257Z,2.70
2018-06-01T10:39:08.580Z,3.15
2018-06-01T10:41:36.145Z,2.62
2018-06-01T10:44:03.788Z,2.70
2018-06-01T10:46:31.336Z,2.67
2018-06-01T10:48:58.891Z,2.67
2018-06-01T10:51:27.420Z,3.23
2018-06-01T10:53:54.978Z,2.60
2018-06-01T10:56:22.542Z,2.40
2018-06-01T10:58:50.581Z,2.00
2018-06-01T11:01:18.137Z,2.73
2018-06-01T11:03:45.698Z,2.63
2018-06-01T11:06:13.298Z,2.50
2018-06-01T11:08:40.857Z,2.33
2018-06-01T11:11:08.409Z,2.53
2018-06-01T11:13:36.018Z,2.13
2018-06-01T11:16:04.380Z,2.10
2018-06-01T11:18:31.903Z,2.63
2018-06-01T11:20:59.513Z,2.20
2018-06-01T11:23:27.067Z,2.63
2018-06-01T11:25:54.622Z,2.23
2018-06-01T11:28:22.782Z,2.80
2018-06-01T11:30:50.337Z,2.90
2018-06-01T11:33:17.894Z,2.73
2018-06-01T11:35:46.080Z,2.63
2018-06-01T11:38:13.632Z,2.77
2018-06-01T11:40:41.186Z,2.90
2018-06-01T11:43:08.795Z,2.30
2018-06-01T11:45:36.353Z,2.80
2018-06-01T11:48:03.902Z,2.60
2018-06-01T11:50:31.550Z,2.90
2018-06-01T11:52:59.112Z,2.77
2018-06-01T11:55:26.668Z,2.83
2018-06-01T11:57:54.280Z,2.43
2018-06-01T12:00:22.603Z,2.53
2018-06-01T12:02:50.162Z,2.43
2018-06-01T12:05:17.783Z,2.70
2018-06-01T12:07:46.115Z,3.10
2018-06-01T12:10:13.671Z,2.90
2018-06-01T12:12:41.645Z,2.90
2018-06-01T12:15:09.202Z,2.90
2018-06-01T12:17:36.805Z,2.80
2018-06-01T12:20:04.384Z,2.93
2018-06-01T12:22:31.942Z,2.73
2018-06-01T12:25:00.264Z,3.60
2018-06-01T12:27:27.867Z,3.00
2018-06-01T12:29:56.192Z,3.00
2018-06-01T12:32:23.746Z,2.90
2018-06-01T12:34:51.384Z,3.07
2018-06-01T12:37:19.707Z,3.10
2018-06-01T12:39:47.268Z,3.00
2018-06-01T12:42:15.342Z,3.17
2018-06-01T12:44:42.893Z,3.23
2018-06-01T12:47:10.453Z,2.73
2018-06-01T12:49:38.060Z,3.40
2018-06-01T12:52:05.624Z,3.50
2018-06-01T12:54:33.945Z,3.53
2018-06-01T12:57:01.584Z,3.73
2018-06-01T12:59:29.912Z,3.63
2018-06-01T13:01:57.467Z,3.40
2018-06-01T13:04:26.062Z,3.30
2018-06-01T13:06:53.622Z,3.37
2018-06-01T13:09:21.180Z,3.60
2018-06-01T13:11:48.776Z,3.47
2018-06-01T13:14:16.336Z,3.20
2018-06-01T13:16:44.663Z,3.30
2018-06-01T13:19:12.305Z,3.73
2018-06-01T13:21:41.500Z,3.60
2018-06-01T13:24:08.961Z,3.10
2018-06-01T13:26:36.567Z,3.00
2018-06-01T13:29:04.269Z,3.30
2018-06-01T13:31:32.589Z,3.33
2018-06-01T13:34:00.235Z,2.90
2018-06-01T13:36:27.793Z,2.97
2018-06-01T13:38:55.630Z,3.63
2018-06-01T13:41:23.285Z,3.13
2018-06-01T13:43:50.909Z,2.83
2018-06-01T13:46:18.389Z,3.60
2018-06-01T13:48:46.014Z,3.20
2018-06-01T13:51:13.558Z,3.00
2018-06-01T13:53:41.119Z,3.00
2018-06-01T13:56:08.751Z,2.53
2018-06-01T13:58:36.299Z,2.33
2018-06-01T14:01:03.855Z,2.47
2018-06-01T14:03:31.458Z,2.53
2018-06-01T14:05:59.787Z,3.30
2018-06-01T14:08:27.347Z,2.73
2018-06-01T14:10:54.991Z,2.63
2018-06-01T14:13:22.535Z,2.60
2018-06-01T14:15:50.087Z,2.37
2018-06-01T14:18:18.462Z,2.13
2018-06-01T14:20:46.784Z,2.40
2018-06-01T14:23:14.343Z,2.33
2018-06-01T14:25:41.947Z,2.73
2018-06-01T14:28:09.505Z,1.90
2018-06-01T14:30:37.059Z,2.10
2018-06-01T14:33:04.704Z,2.70
2018-06-01T14:35:32.265Z,2.90
2018-06-01T14:37:59.825Z,2.50
2018-06-01T14:40:28.711Z,2.40
2018-06-01T14:42:56.326Z,2.85
2018-06-01T14:45:24.649Z,2.43
2018-06-01T14:47:52.624Z,2.47
2018-06-01T14:50:20.178Z,2.87
2018-06-01T14:52:47.735Z,2.40
2018-06-01T14:55:15.374Z,2.43
2018-06-01T14:57:42.924Z,2.00
2018-06-01T15:00:10.479Z,2.27
2018-06-01T15:02:39.756Z,2.17
2018-06-01T15:05:07.311Z,2.40
2018-06-01T15:07:34.887Z,2.35
2018-06-01T15:10:02.475Z,2.50
2018-06-01T15:12:30.038Z,2.00
2018-06-01T15:14:57.608Z,2.27
2018-06-01T15:17:25.714Z,2.23
2018-06-01T15:19:53.271Z,2.57
2018-06-01T15:22:20.825Z,2.47
2018-06-01T15:24:48.473Z,2.43
2018-06-01T15:27:16.261Z,2.40
2018-06-01T15:29:43.819Z,2.30
2018-06-01T15:32:12.405Z,2.37
2018-06-01T15:34:39.957Z,2.40
2018-06-01T15:37:07.521Z,2.10
2018-06-01T15:39:35.132Z,2.57
2018-06-01T15:42:03.471Z,2.07
2018-06-01T15:44:31.032Z,2.40
2018-06-01T15:46:58.728Z,2.50
2018-06-01T15:49:26.318Z,2.23
2018-06-01T15:51:53.867Z,2.30
2018-06-01T15:54:22.025Z,2.80
2018-06-01T15:56:55.611Z,2.73
2018-06-01T15:59:17.426Z,2.80
2018-06-01T16:01:45.589Z,2.95
2018-06-01T16:04:13.146Z,2.37
2018-06-01T16:06:44.748Z,2.40
2018-06-01T16:09:11.239Z,2.70
2018-06-01T16:11:38.793Z,3.10
2018-06-01T16:14:06.650Z,3.13
2018-06-01T16:16:34.751Z,3.40
2018-06-01T16:19:02.313Z,3.30
2018-06-01T16:21:32.634Z,3.43
2018-06-01T16:24:00.241Z,3.10
2018-06-01T16:26:28.562Z,3.27
2018-06-01T16:28:56.121Z,3.50
2018-06-01T16:31:24.672Z,3.83
2018-06-01T16:33:52.182Z,3.40
2018-06-01T16:36:22.226Z,3.57
2018-06-01T16:38:49.833Z,4.30
2018-06-01T16:41:17.387Z,4.00
2018-06-01T16:43:44.939Z,4.10
2018-06-01T16:46:22.361Z,3.70
2018-06-01T16:48:50.641Z,3.93
2018-06-01T16:51:18.237Z,3.63
2018-06-01T16:53:45.804Z,3.90
2018-06-01T16:56:13.355Z,4.40
2018-06-01T16:58:42.646Z,3.43
2018-06-01T17:01:10.201Z,3.70
2018-06-01T17:03:37.757Z,4.40
2018-06-01T17:06:05.359Z,4.33
2018-06-01T17:08:33.699Z,4.33
2018-06-01T17:11:01.269Z,3.83
2018-06-01T17:13:28.879Z,4.10
2018-06-01T17:15:57.239Z,4.20
2018-06-01T17:18:24.778Z,4.53
2018-06-01T17:20:52.584Z,4.50
2018-06-01T17:23:20.897Z,5.10
2018-06-01T17:25:48.459Z,4.70
2018-06-01T17:28:16.085Z,4.60
2018-06-01T17:30:44.408Z,4.00
2018-06-01T17:33:11.964Z,4.03
2018-06-01T17:35:39.567Z,4.93
2018-06-01T17:38:07.128Z,4.43
2018-06-01T17:40:34.702Z,3.73
2018-06-01T17:43:03.057Z,3.20
2018-06-01T17:45:30.613Z,3.73
2018-06-01T17:47:58.171Z,4.40
2018-06-01T17:50:26.228Z,3.00
2018-06-01T17:52:54.102Z,3.30
2018-06-01T17:55:21.663Z,3.70
2018-06-01T17:57:49.290Z,3.13
2018-06-01T18:00:16.850Z,3.57
2018-06-01T18:02:44.412Z,3.27
2018-06-01T18:05:12.046Z,3.17
2018-06-01T18:07:40.360Z,3.57
2018-06-01T18:10:07.911Z,3.27
2018-06-01T18:12:35.537Z,3.20
2018-06-01T18:15:03.088Z,3.77
2018-06-01T18:17:30.672Z,3.93
2018-06-01T18:19:58.705Z,3.20
2018-06-01T18:22:26.318Z,3.47
2018-06-01T18:25:01.241Z,3.47
2018-06-01T18:27:24.374Z,4.10
2018-06-01T18:29:51.927Z,3.30
2018-06-01T18:32:19.485Z,3.87
2018-06-01T18:34:47.118Z,3.77
2018-06-01T18:37:14.673Z,3.80
2018-06-01T18:39:42.226Z,3.40
2018-06-01T18:42:09.850Z,3.33
2018-06-01T18:44:37.401Z,3.63
2018-06-01T18:47:04.968Z,2.90
2018-06-01T18:49:33.008Z,3.00
2018-06-01T18:52:00.509Z,3.43
2018-06-01T18:54:28.065Z,3.10
2018-06-01T18:56:55.665Z,3.10
2018-06-01T18:59:23.216Z,2.93
2018-06-01T19:01:50.777Z,3.17
2018-06-01T19:04:19.713Z,3.03
2018-06-01T19:06:47.292Z,3.80
2018-06-01T19:09:14.852Z,3.27
2018-06-01T19:11:42.899Z,3.60
2018-06-01T19:14:10.465Z,4.13
2018-06-01T19:16:38.030Z,3.60
2018-06-01T19:19:05.656Z,3.80
2018-06-01T19:21:33.209Z,3.67
2018-06-01T19:24:01.979Z,3.53
2018-06-01T19:26:29.609Z,3.33
2018-06-01T19:28:57.183Z,3.93
2018-06-01T19:31:24.719Z,3.67
2018-06-01T19:33:52.337Z,3.63
2018-06-01T19:36:20.656Z,4.47
2018-06-01T19:38:48.219Z,3.90
2018-06-01T19:41:15.821Z,4.40
2018-06-01T19:43:43.381Z,4.70
2018-06-01T19:46:10.940Z,4.33
2018-06-01T19:48:38.556Z,4.00
2018-06-01T19:51:06.114Z,4.50
2018-06-01T19:53:33.670Z,3.77
2018-06-01T19:56:01.301Z,4.17
2018-06-01T19:58:28.862Z,4.20
2018-06-01T20:00:57.189Z,4.50
2018-06-01T20:03:26.188Z,3.93
2018-06-01T20:05:53.740Z,3.87
2018-06-01T20:08:21.292Z,4.10
2018-06-01T20:10:49.423Z,4.20
2018-06-01T20:13:17.792Z,3.90
2018-06-01T20:15:45.309Z,3.63
2018-06-01T20:18:12.913Z,4.17
2018-06-01T20:20:40.468Z,4.10
2018-06-01T20:23:08.025Z,5.62
2018-06-01T20:25:36.275Z,5.45
2018-06-01T20:28:03.827Z,5.37
2018-06-01T20:30:31.395Z,5.00
2018-06-01T20:32:59.027Z,4.13
2018-06-01T20:35:26.579Z,4.17
2018-06-01T20:37:54.196Z,4.50
2018-06-01T20:42:49.818Z,4.77
2018-06-01T20:45:17.374Z,4.20
2018-06-01T20:47:44.976Z,4.40
2018-06-01T20:50:12.534Z,4.37
2018-06-01T20:52:40.099Z,4.63
2018-06-01T20:55:07.826Z,4.20
2018-06-01T20:57:35.374Z,4.27
2018-06-01T21:00:02.938Z,4.47
2018-06-01T21:02:30.548Z,3.83
2018-06-01T21:04:58.110Z,4.30
2018-06-01T21:07:25.675Z,4.27
2018-06-01T21:09:53.308Z,4.13
2018-06-01T21:12:21.947Z,4.20
2018-06-01T21:14:49.497Z,4.33
2018-06-01T21:17:17.893Z,5.07
2018-06-01T21:19:45.453Z,5.80
2018-06-01T21:22:15.145Z,5.37
2018-06-01T21:24:42.720Z,5.43
2018-06-01T21:27:11.037Z,4.80
2018-06-01T21:29:38.600Z,4.43
2018-06-01T21:32:06.203Z,6.37
2018-06-01T21:34:33.753Z,5.10
2018-06-01T21:37:01.316Z,5.80
2018-06-01T21:39:28.915Z,7.37
2018-06-01T21:41:56.478Z,6.17
2018-06-01T21:44:24.034Z,6.17
2018-06-01T21:46:51.629Z,6.50
2018-06-01T21:49:19.180Z,6.23
2018-06-01T21:51:46.743Z,6.50
2018-06-01T21:54:14.725Z,7.17
2018-06-01T21:56:42.287Z,6.93
2018-06-01T21:59:09.842Z,7.13
2018-06-01T22:01:37.450Z,5.80
2018-06-01T22:04:05.774Z,6.10
2018-06-01T22:06:33.357Z,6.23
2018-06-01T22:09:00.917Z,6.50
2018-06-01T22:11:30.197Z,6.30
2018-06-01T22:13:56.065Z,5.70
2018-06-01T22:16:24.111Z,5.87
2018-06-01T22:18:51.671Z,6.27
2018-06-01T22:21:19.230Z,6.10
2018-06-01T22:23:46.832Z,6.83
2018-06-01T22:26:15.156Z,6.50
2018-06-01T22:28:42.709Z,5.87
2018-06-01T22:31:10.299Z,5.57
2018-06-01T22:33:37.866Z,6.10
2018-06-01T22:36:05.421Z,7.87
2018-06-01T22:38:33.585Z,6.40
2018-06-01T22:41:01.179Z,6.43
2018-06-01T22:43:28.738Z,6.00
2018-06-01T22:45:56.342Z,6.10
2018-06-01T22:48:23.898Z,6.40
2018-06-01T22:50:51.453Z,7.47
2018-06-01T22:53:19.065Z,6.60
2018-06-01T22:55:46.629Z,7.20
2018-06-01T22:58:14.209Z,10.18
2018-06-01T23:00:41.834Z,8.43
2018-06-01T23:03:09.393Z,9.82
2018-06-01T23:05:36.945Z,7.60
2018-06-01T23:08:04.544Z,8.47
2018-06-01T23:10:32.100Z,7.70
2018-06-01T23:12:59.687Z,7.83
2018-06-01T23:15:28.049Z,7.47
2018-06-01T23:17:55.611Z,7.30
2018-06-01T23:20:23.161Z,8.27
2018-06-01T23:22:50.781Z,6.70
2018-06-01T23:25:18.338Z,7.67
2018-06-01T23:27:45.902Z,14.33
2018-06-01T23:30:13.499Z,7.80
2018-06-01T23:32:41.057Z,10.70
2018-06-01T23:35:08.618Z,12.67
2018-06-01T23:37:36.216Z,15.47
2018-06-01T23:40:03.771Z,16.43
2018-06-01T23:42:31.336Z,18.83
2018-06-01T23:44:59.478Z,10.40
2018-06-01T23:47:27.045Z,12.43
2018-06-01T23:49:54.615Z,11.17
2018-06-01T23:52:22.212Z,9.90
2018-06-01T23:54:50.548Z,10.47
2018-06-01T23:57:18.117Z,10.07
2018-06-01T23:59:45.717Z,10.93
